createdAt,value
2023-04-01T00:00:00.934Z,6.06
2023-04-01T00:02:27.527Z,6.03
2023-04-01T00:04:53.992Z,6.03
2023-04-01T00:07:20.615Z,5.96
2023-04-01T00:09:47.062Z,5.98
2023-04-01T00:12:13.569Z,5.95
2023-04-01T00:14:40.154Z,5.84
2023-04-01T00:17:06.586Z,5.84
2023-04-01T00:19:33.002Z,5.88
2023-04-01T00:21:59.572Z,5.85
2023-04-01T00:24:25.970Z,5.79
2023-04-01T00:26:52.449Z,5.86
2023-04-01T00:29:19.062Z,5.82
2023-04-01T00:31:45.829Z,5.88
2023-04-01T00:34:12.920Z,5.80
2023-04-01T00:36:39.622Z,5.82
2023-04-01T00:39:06.199Z,5.81
2023-04-01T00:41:32.719Z,5.90
2023-04-01T00:44:21.419Z,5.89
2023-04-01T00:46:47.976Z,5.95
2023-04-01T00:49:15.247Z,5.91
2023-04-01T00:51:42.070Z,5.88
2023-04-01T00:54:08.578Z,5.94
2023-04-01T00:56:35.794Z,5.80
2023-04-01T00:59:06.020Z,5.80
2023-04-01T01:01:32.535Z,5.83
2023-04-01T01:03:59.085Z,5.85
2023-04-01T01:06:44.212Z,5.82
2023-04-01T01:09:19.912Z,5.88
2023-04-01T01:11:51.531Z,5.80
2023-04-01T01:14:20.928Z,5.94
2023-04-01T01:16:49.527Z,5.80
2023-04-01T01:19:18.888Z,5.91
2023-04-01T01:21:50.730Z,5.80
2023-04-01T01:24:19.603Z,5.76
2023-04-01T01:26:56.452Z,5.70
2023-04-01T01:29:35.310Z,5.71
2023-04-01T01:32:07.687Z,5.57
2023-04-01T01:34:52.315Z,5.59
2023-04-01T01:37:18.993Z,5.59
2023-04-01T01:39:47.327Z,5.61
2023-04-01T01:42:14.506Z,5.56
2023-04-01T01:44:41.007Z,5.53
2023-04-01T01:47:07.438Z,5.55
2023-04-01T01:49:34.150Z,5.51
2023-04-01T01:52:00.595Z,5.62
2023-04-01T01:54:27.186Z,5.57
2023-04-01T01:56:57.086Z,5.57
2023-04-01T01:59:23.660Z,5.55
2023-04-01T02:01:50.816Z,5.60
2023-04-01T02:04:17.405Z,5.49
2023-04-01T02:06:45.926Z,5.44
2023-04-01T02:09:12.412Z,5.45
2023-04-01T02:11:41.824Z,5.33
2023-04-01T02:14:31.221Z,5.38
2023-04-01T02:17:03.846Z,5.50
2023-04-01T02:19:40.290Z,5.29
2023-04-01T02:22:07.009Z,5.26
2023-04-01T02:24:33.432Z,5.32
2023-04-01T02:26:59.969Z,5.21
2023-04-01T02:29:26.476Z,5.21
2023-04-01T02:31:53.055Z,5.18
2023-04-01T02:34:19.916Z,5.11
2023-04-01T02:36:46.416Z,5.17
2023-04-01T02:39:13.132Z,5.08
2023-04-01T02:41:40.481Z,5.12
2023-04-01T02:44:07.100Z,5.07
2023-04-01T02:46:33.696Z,5.00
2023-04-01T02:49:00.208Z,5.03
2023-04-01T02:51:26.920Z,5.08
2023-04-01T02:53:53.419Z,5.09
2023-04-01T02:56:19.894Z,5.09
2023-04-01T02:58:46.775Z,5.07
2023-04-01T03:01:13.301Z,5.03
2023-04-01T03:03:39.818Z,4.95
2023-04-01T03:06:09.938Z,5.03
2023-04-01T03:08:36.436Z,5.06
2023-04-01T03:11:03.081Z,5.11
2023-04-01T03:13:29.554Z,5.05
2023-04-01T03:15:56.130Z,5.13
2023-04-01T03:18:22.578Z,4.99
2023-04-01T03:20:49.286Z,5.03
2023-04-01T03:23:15.742Z,5.02
2023-04-01T03:25:42.187Z,5.07
2023-04-01T03:28:08.572Z,5.00
2023-04-01T03:30:35.044Z,5.01
2023-04-01T03:33:01.487Z,5.16
2023-04-01T03:35:27.960Z,5.08
2023-04-01T03:37:54.643Z,4.99
2023-04-01T03:40:21.487Z,4.95
2023-04-01T03:42:48.164Z,5.08
2023-04-01T03:45:14.620Z,5.08
2023-04-01T03:47:41.096Z,5.26
2023-04-01T03:50:07.738Z,5.33
2023-04-01T03:52:34.393Z,5.35
2023-04-01T03:55:01.373Z,5.41
2023-04-01T03:57:28.126Z,5.29
2023-04-01T03:59:54.491Z,5.18
2023-04-01T04:02:21.021Z,5.14
2023-04-01T04:04:47.574Z,5.14
2023-04-01T04:07:14.064Z,5.17
2023-04-01T04:09:40.463Z,5.02
2023-04-01T04:12:07.175Z,5.02
2023-04-01T04:14:33.609Z,5.01
2023-04-01T04:17:00.125Z,4.98
2023-04-01T04:19:26.630Z,4.98
2023-04-01T04:21:53.135Z,4.92
2023-04-01T04:24:19.619Z,5.02
2023-04-01T04:26:46.024Z,5.10
2023-04-01T04:29:12.500Z,5.17
2023-04-01T04:31:38.982Z,5.18
2023-04-01T04:34:05.526Z,5.14
2023-04-01T04:36:31.992Z,5.22
2023-04-01T04:38:58.445Z,5.26
2023-04-01T04:41:24.838Z,5.28
2023-04-01T04:43:51.867Z,5.22
2023-04-01T04:46:18.454Z,5.23
2023-04-01T04:48:44.995Z,5.21
2023-04-01T04:51:14.227Z,5.15
2023-04-01T04:53:40.673Z,5.15
2023-04-01T04:56:07.223Z,5.07
2023-04-01T04:58:33.720Z,4.99
2023-04-01T05:01:00.280Z,5.06
2023-04-01T05:03:26.950Z,5.10
2023-04-01T05:05:54.044Z,5.09
2023-04-01T05:08:20.588Z,5.15
2023-04-01T05:10:47.095Z,5.11
2023-04-01T05:13:13.616Z,5.16
2023-04-01T05:15:40.066Z,5.11
2023-04-01T05:18:06.512Z,5.15
2023-04-01T05:20:33.162Z,5.03
2023-04-01T05:22:59.721Z,5.00
2023-04-01T05:25:26.104Z,4.92
2023-04-01T05:27:52.696Z,4.87
2023-04-01T05:30:19.127Z,4.92
2023-04-01T05:32:45.607Z,4.96
2023-04-01T05:35:12.231Z,4.95
2023-04-01T05:37:38.731Z,5.18
2023-04-01T05:40:05.489Z,5.24
2023-04-01T05:42:31.988Z,5.28
2023-04-01T05:44:58.449Z,5.32
2023-04-01T05:47:25.018Z,5.24
2023-04-01T05:49:51.484Z,5.35
2023-04-01T05:52:17.966Z,5.35
2023-04-01T05:54:44.446Z,5.38
2023-04-01T05:57:10.984Z,5.50
2023-04-01T05:59:37.508Z,5.50
2023-04-01T06:02:04.005Z,5.67
2023-04-01T06:04:33.919Z,5.65
2023-04-01T06:07:00.466Z,5.69
2023-04-01T06:09:30.640Z,5.83
2023-04-01T06:12:03.362Z,5.91
2023-04-01T06:14:42.044Z,5.93
2023-04-01T06:17:20.911Z,5.93
2023-04-01T06:19:47.385Z,6.09
2023-04-01T06:22:16.678Z,6.08
2023-04-01T06:24:45.634Z,6.11
2023-04-01T06:27:16.488Z,6.25
2023-04-01T06:29:52.561Z,6.24
2023-04-01T06:32:19.057Z,6.31
2023-04-01T06:35:04.980Z,6.35
2023-04-01T06:37:43.674Z,6.46
2023-04-01T06:40:29.133Z,6.42
2023-04-01T06:43:14.468Z,6.48
2023-04-01T06:45:43.375Z,6.52
2023-04-01T06:48:25.264Z,6.67
2023-04-01T06:51:10.410Z,6.61
2023-04-01T06:53:36.949Z,6.70
2023-04-01T06:56:05.110Z,6.60
2023-04-01T06:58:50.321Z,6.69
2023-04-01T07:01:22.783Z,6.58
2023-04-01T07:03:51.066Z,6.66
2023-04-01T07:06:24.043Z,6.67
2023-04-01T07:08:50.470Z,6.79
2023-04-01T07:11:21.832Z,6.91
2023-04-01T07:13:51.294Z,7.08
2023-04-01T07:16:30.285Z,7.13
2023-04-01T07:19:07.709Z,7.33
2023-04-01T07:21:41.550Z,7.33
2023-04-01T07:24:11.350Z,7.51
2023-04-01T07:26:37.827Z,7.44
2023-04-01T07:29:06.003Z,7.54
2023-04-01T07:31:45.723Z,7.78
2023-04-01T07:34:12.172Z,8.04
2023-04-01T07:36:57.449Z,8.10
2023-04-01T07:39:26.641Z,8.37
2023-04-01T07:41:55.909Z,8.87
2023-04-01T07:44:26.748Z,9.30
2023-04-01T07:47:02.078Z,9.88
2023-04-01T07:50:07.359Z,11.05
2023-04-01T07:52:38.412Z,12.39
2023-04-01T07:55:19.225Z,12.69
2023-04-01T07:57:51.898Z,13.38
2023-04-01T08:00:21.952Z,12.04
2023-04-01T08:02:57.674Z,12.92
2023-04-01T08:05:31.102Z,12.42
2023-04-01T08:08:16.621Z,12.96
2023-04-01T08:10:51.048Z,12.78
2023-04-01T08:13:17.809Z,14.19
2023-04-01T08:15:53.288Z,12.57
2023-04-01T08:18:39.043Z,11.87
2023-04-01T08:21:07.062Z,11.66
2023-04-01T08:23:34.121Z,11.77
2023-04-01T08:26:05.968Z,11.59
2023-04-01T08:28:32.430Z,12.28
2023-04-01T08:31:00.272Z,11.66
2023-04-01T08:33:29.938Z,13.73
2023-04-01T08:35:59.424Z,14.02
2023-04-01T08:38:28.442Z,13.83
2023-04-01T08:40:54.858Z,15.44
2023-04-01T08:43:40.345Z,15.55
2023-04-01T08:46:12.814Z,14.44
2023-04-01T08:48:54.466Z,13.42
2023-04-01T08:51:39.761Z,12.53
2023-04-01T08:54:06.183Z,12.25
2023-04-01T08:56:35.163Z,11.30
2023-04-01T08:59:20.553Z,10.55
2023-04-01T09:02:06.067Z,10.06
2023-04-01T09:04:51.616Z,9.95
2023-04-01T09:07:30.173Z,10.61
2023-04-01T09:10:00.995Z,9.98
2023-04-01T09:12:46.189Z,10.02
2023-04-01T09:15:24.646Z,9.99
2023-04-01T09:18:07.476Z,9.85
2023-04-01T09:20:52.994Z,9.73
2023-04-01T09:23:22.292Z,9.44
2023-04-01T09:26:05.183Z,9.45
2023-04-01T09:28:38.698Z,9.78
2023-04-01T09:31:11.611Z,9.94
2023-04-01T09:33:56.944Z,10.52
2023-04-01T09:36:42.098Z,10.64
2023-04-01T09:39:26.877Z,10.40
2023-04-01T09:42:12.078Z,10.78
2023-04-01T09:44:42.950Z,11.20
2023-04-01T09:47:12.680Z,11.71
2023-04-01T09:49:39.441Z,10.99
2023-04-01T09:52:19.203Z,10.96
2023-04-01T09:54:50.254Z,10.33
2023-04-01T09:57:35.788Z,10.37
2023-04-01T10:00:07.767Z,10.40
2023-04-01T10:02:37.478Z,9.86
2023-04-01T10:05:16.061Z,10.25
2023-04-01T10:08:01.270Z,9.89
2023-04-01T10:10:46.577Z,10.24
2023-04-01T10:13:19.234Z,10.11
2023-04-01T10:15:49.344Z,10.13
2023-04-01T10:18:27.805Z,9.84
2023-04-01T10:21:12.760Z,9.77
2023-04-01T10:23:39.226Z,9.64
2023-04-01T10:26:17.697Z,9.76
2023-04-01T10:29:02.738Z,9.87
2023-04-01T10:31:34.317Z,9.38
2023-04-01T10:34:23.569Z,9.23
2023-04-01T10:36:53.765Z,9.27
2023-04-01T10:39:38.642Z,9.25
2023-04-01T10:42:10.972Z,9.40
2023-04-01T10:44:37.433Z,9.42
2023-04-01T10:47:14.439Z,9.42
2023-04-01T10:49:49.967Z,9.46
2023-04-01T10:52:35.056Z,9.49
2023-04-01T10:55:20.052Z,9.34
2023-04-01T10:57:52.348Z,9.38
2023-04-01T11:00:27.777Z,9.30
2023-04-01T11:03:02.101Z,9.21
2023-04-01T11:05:31.795Z,9.12
2023-04-01T11:08:06.505Z,9.25
2023-04-01T11:10:50.381Z,9.37
2023-04-01T11:13:30.082Z,9.51
2023-04-01T11:16:13.117Z,9.75
2023-04-01T11:18:52.203Z,9.84
2023-04-01T11:21:21.643Z,9.75
2023-04-01T11:24:03.838Z,9.68
2023-04-01T11:26:34.015Z,9.61
2023-04-01T11:29:04.439Z,9.64
2023-04-01T11:31:30.856Z,9.62
2023-04-01T11:33:57.279Z,9.64
2023-04-01T11:36:30.476Z,9.65
2023-04-01T11:39:01.918Z,9.81
2023-04-01T11:42:00.888Z,9.59
2023-04-01T11:44:27.830Z,9.70
2023-04-01T11:47:00.470Z,9.68
2023-04-01T11:49:47.209Z,9.46
2023-04-01T11:52:19.677Z,9.60
2023-04-01T11:55:01.411Z,10.01
2023-04-01T11:57:39.894Z,9.56
2023-04-01T12:00:18.603Z,9.42
2023-04-01T12:02:52.848Z,9.14
2023-04-01T12:05:32.494Z,9.02
2023-04-01T12:08:08.944Z,8.72
2023-04-01T12:10:54.677Z,8.12
2023-04-01T12:13:28.449Z,8.16
2023-04-01T12:15:54.953Z,8.18
2023-04-01T12:18:39.686Z,8.27
2023-04-01T12:21:21.561Z,8.18
2023-04-01T12:23:58.591Z,8.35
2023-04-01T12:26:34.538Z,8.08
2023-04-01T12:29:07.830Z,7.88
2023-04-01T12:31:43.831Z,7.72
2023-04-01T12:34:36.509Z,7.82
2023-04-01T12:37:06.445Z,7.81
2023-04-01T12:39:45.412Z,7.63
2023-04-01T12:42:25.343Z,7.62
2023-04-01T12:44:51.866Z,7.59
2023-04-01T12:47:31.622Z,7.56
2023-04-01T12:50:17.070Z,7.56
2023-04-01T12:52:49.470Z,7.60
2023-04-01T12:55:34.412Z,7.61
2023-04-01T12:58:03.716Z,7.39
2023-04-01T13:00:45.556Z,7.06
2023-04-01T13:03:11.997Z,7.06
2023-04-01T13:05:41.113Z,7.25
2023-04-01T13:08:07.455Z,7.06
2023-04-01T13:10:39.732Z,7.14
2023-04-01T13:13:26.362Z,7.26
2023-04-01T13:15:52.861Z,7.26
2023-04-01T13:18:25.121Z,7.11
2023-04-01T13:20:57.768Z,7.00
2023-04-01T13:23:24.184Z,7.01
2023-04-01T13:26:07.024Z,6.90
2023-04-01T13:28:53.121Z,6.90
2023-04-01T13:31:31.717Z,6.73
2023-04-01T13:34:27.507Z,6.82
2023-04-01T13:36:56.589Z,7.19
2023-04-01T13:39:41.787Z,7.33
2023-04-01T13:42:10.954Z,7.29
2023-04-01T13:44:48.216Z,7.26
2023-04-01T13:47:33.142Z,7.22
2023-04-01T13:50:18.625Z,7.33
2023-04-01T13:53:01.301Z,7.28
2023-04-01T13:55:27.790Z,7.37
2023-04-01T13:58:17.131Z,7.41
2023-04-01T14:00:45.762Z,7.38
2023-04-01T14:03:31.126Z,7.59
2023-04-01T14:06:06.722Z,7.67
2023-04-01T14:08:59.454Z,7.71
2023-04-01T14:11:40.711Z,7.37
2023-04-01T14:14:17.521Z,7.42
2023-04-01T14:16:49.861Z,7.50
2023-04-01T14:19:32.220Z,7.57
2023-04-01T14:21:58.698Z,7.70
2023-04-01T14:24:32.683Z,7.69
2023-04-01T14:27:05.269Z,7.87
2023-04-01T14:29:35.854Z,7.64
2023-04-01T14:32:02.273Z,7.59
2023-04-01T14:34:44.925Z,7.47
2023-04-01T14:37:16.909Z,7.37
2023-04-01T14:39:55.850Z,7.38
2023-04-01T14:42:28.112Z,7.37
2023-04-01T14:44:54.527Z,7.44
2023-04-01T14:47:39.967Z,7.33
2023-04-01T14:50:07.593Z,7.38
2023-04-01T14:52:34.768Z,7.46
2023-04-01T14:55:01.268Z,7.58
2023-04-01T14:57:28.616Z,7.77
2023-04-01T15:00:00.340Z,7.68
2023-04-01T15:02:36.859Z,7.71
2023-04-01T15:05:04.150Z,7.73
2023-04-01T15:07:36.525Z,7.75
2023-04-01T15:10:21.879Z,7.82
2023-04-01T15:13:14.724Z,7.92
2023-04-01T15:15:41.215Z,7.77
2023-04-01T15:18:08.952Z,7.73
2023-04-01T15:20:35.567Z,7.73
2023-04-01T15:23:13.196Z,7.87
2023-04-01T15:25:43.072Z,7.68
2023-04-01T15:28:09.486Z,7.73
2023-04-01T15:30:50.156Z,7.76
2023-04-01T15:33:29.973Z,7.83
2023-04-01T15:35:59.460Z,7.64
2023-04-01T15:38:32.084Z,7.52
2023-04-01T15:41:02.207Z,7.46
2023-04-01T15:43:31.538Z,7.60
2023-04-01T15:46:10.132Z,7.62
2023-04-01T15:48:46.971Z,7.53
2023-04-01T15:51:25.945Z,7.51
2023-04-01T15:53:58.330Z,7.54
2023-04-01T15:56:36.673Z,7.48
2023-04-01T15:59:08.921Z,7.42
2023-04-01T16:01:40.569Z,7.48
2023-04-01T16:04:25.040Z,7.49
2023-04-01T16:07:05.068Z,7.52
2023-04-01T16:09:50.580Z,7.50
2023-04-01T16:12:17.067Z,7.46
2023-04-01T16:14:54.474Z,7.43
2023-04-01T16:17:20.935Z,7.58
2023-04-01T16:19:50.220Z,7.37
2023-04-01T16:22:55.030Z,7.43
2023-04-01T16:25:26.500Z,7.18
2023-04-01T16:27:56.458Z,7.33
2023-04-01T16:30:39.182Z,7.29
2023-04-01T16:33:12.872Z,7.20
2023-04-01T16:35:44.854Z,7.34
2023-04-01T16:38:25.514Z,7.24
2023-04-01T16:41:00.321Z,7.08
2023-04-01T16:43:31.867Z,7.10
2023-04-01T16:45:58.287Z,7.01
2023-04-01T16:48:28.840Z,6.90
2023-04-01T16:50:56.619Z,6.93
2023-04-01T16:53:31.949Z,6.84
2023-04-01T16:56:03.909Z,6.95
2023-04-01T16:58:37.283Z,6.91
2023-04-01T17:01:05.314Z,6.91
2023-04-01T17:03:37.919Z,6.79
2023-04-01T17:06:08.292Z,6.83
2023-04-01T17:08:43.767Z,6.89
2023-04-01T17:11:13.249Z,6.85
2023-04-01T17:13:47.116Z,6.81
2023-04-01T17:16:25.968Z,6.81
2023-04-01T17:19:01.609Z,6.78
2023-04-01T17:21:30.871Z,6.80
2023-04-01T17:24:20.620Z,6.78
2023-04-01T17:26:47.054Z,6.80
2023-04-01T17:29:39.612Z,6.80
2023-04-01T17:32:08.710Z,6.71
2023-04-01T17:34:41.392Z,6.78
2023-04-01T17:37:20.949Z,6.77
2023-04-01T17:39:49.955Z,6.77
2023-04-01T17:42:17.479Z,6.70
2023-04-01T17:44:50.526Z,6.76
2023-04-01T17:47:21.876Z,6.62
2023-04-01T17:49:51.056Z,6.60
2023-04-01T17:52:32.779Z,6.67
2023-04-01T17:55:17.995Z,6.62
2023-04-01T17:57:47.078Z,6.65
2023-04-01T18:00:16.497Z,6.66
2023-04-01T18:02:43.018Z,6.62
2023-04-01T18:05:12.462Z,6.50
2023-04-01T18:07:57.092Z,6.48
2023-04-01T18:10:25.123Z,6.60
2023-04-01T18:13:05.944Z,6.47
2023-04-01T18:15:32.362Z,6.41
2023-04-01T18:18:01.780Z,6.31
2023-04-01T18:20:46.673Z,6.34
2023-04-01T18:23:28.396Z,6.45
2023-04-01T18:25:55.457Z,6.33
2023-04-01T18:28:21.866Z,6.35
2023-04-01T18:31:17.757Z,6.31
2023-04-01T18:33:53.321Z,6.31
2023-04-01T18:36:38.507Z,6.30
2023-04-01T18:39:23.094Z,6.32
2023-04-01T18:42:18.983Z,6.35
2023-04-01T18:44:48.141Z,6.29
2023-04-01T18:47:33.557Z,6.33
2023-04-01T18:50:07.393Z,6.37
2023-04-01T18:52:35.135Z,6.33
2023-04-01T18:55:01.578Z,6.21
2023-04-01T18:57:28.315Z,6.24
2023-04-01T18:59:56.444Z,6.30
2023-04-01T19:02:28.284Z,6.23
2023-04-01T19:05:01.479Z,6.17
2023-04-01T19:07:40.047Z,6.19
2023-04-01T19:10:17.150Z,6.25
2023-04-01T19:12:46.606Z,6.23
2023-04-01T19:15:15.698Z,6.20
2023-04-01T19:17:54.310Z,6.16
2023-04-01T19:20:42.181Z,6.24
2023-04-01T19:23:15.060Z,6.20
2023-04-01T19:25:59.911Z,6.23
2023-04-01T19:28:26.366Z,6.17
2023-04-01T19:30:55.925Z,6.20
2023-04-01T19:33:31.297Z,6.20
2023-04-01T19:36:16.202Z,6.24
2023-04-01T19:38:44.058Z,6.17
2023-04-01T19:41:14.274Z,6.19
2023-04-01T19:43:45.299Z,6.15
2023-04-01T19:46:11.716Z,6.19
2023-04-01T19:48:45.842Z,6.11
2023-04-01T19:51:15.340Z,6.15
2023-04-01T19:53:47.193Z,6.13
2023-04-01T19:56:13.596Z,6.09
2023-04-01T19:58:55.036Z,6.11
2023-04-01T20:01:45.312Z,6.18
2023-04-01T20:04:14.142Z,6.16
2023-04-01T20:07:01.942Z,6.20
2023-04-01T20:09:28.371Z,6.16
2023-04-01T20:11:54.824Z,6.24
2023-04-01T20:14:24.209Z,6.21
2023-04-01T20:17:01.330Z,6.22
2023-04-01T20:19:34.361Z,6.26
2023-04-01T20:22:00.838Z,6.16
2023-04-01T20:24:27.258Z,6.23
2023-04-01T20:27:12.369Z,6.21
2023-04-01T20:29:38.757Z,6.19
2023-04-01T20:32:17.649Z,6.21
2023-04-01T20:34:46.932Z,6.24
2023-04-01T20:37:32.299Z,6.19
2023-04-01T20:39:58.802Z,6.23
2023-04-01T20:42:30.184Z,6.29
2023-04-01T20:45:01.839Z,6.29
2023-04-01T20:47:46.289Z,6.28
2023-04-01T20:50:20.097Z,6.28
2023-04-01T20:52:57.128Z,6.23
2023-04-01T20:55:42.364Z,6.25
2023-04-01T20:58:22.549Z,6.22
2023-04-01T21:00:58.597Z,6.24
2023-04-01T21:03:43.587Z,6.26
2023-04-01T21:06:16.393Z,6.23
2023-04-01T21:08:54.848Z,6.21
2023-04-01T21:11:24.228Z,6.16
2023-04-01T21:14:10.880Z,6.20
2023-04-01T21:17:16.288Z,6.16
2023-04-01T21:19:42.690Z,6.19
2023-04-01T21:22:18.461Z,6.16
2023-04-01T21:24:50.864Z,6.15
2023-04-01T21:27:17.278Z,6.14
2023-04-01T21:29:46.786Z,6.19
2023-04-01T21:32:19.234Z,6.17
2023-04-01T21:34:52.841Z,6.23
2023-04-01T21:37:22.142Z,6.15
2023-04-01T21:40:02.035Z,6.19
2023-04-01T21:42:40.924Z,6.16
2023-04-01T21:45:10.394Z,6.16
2023-04-01T21:47:36.817Z,6.17
2023-04-01T21:50:23.556Z,6.11
2023-04-01T21:53:19.520Z,6.13
2023-04-01T21:55:55.131Z,6.11
2023-04-01T21:58:39.577Z,6.14
2023-04-01T22:01:21.783Z,6.14
2023-04-01T22:03:52.017Z,6.12
2023-04-01T22:06:18.458Z,6.09
2023-04-01T22:08:50.841Z,6.10
2023-04-01T22:11:35.926Z,6.10
2023-04-01T22:14:04.080Z,6.07
2023-04-01T22:16:48.399Z,6.06
2023-04-01T22:19:21.898Z,6.03
2023-04-01T22:21:51.506Z,5.97
2023-04-01T22:24:25.838Z,6.03
2023-04-01T22:26:59.337Z,6.05
2023-04-01T22:29:31.939Z,5.96
2023-04-01T22:32:06.434Z,5.91
2023-04-01T22:34:38.631Z,5.98
2023-04-01T22:37:23.743Z,5.96
2023-04-01T22:40:12.181Z,5.95
2023-04-01T22:42:43.026Z,5.88
2023-04-01T22:45:28.396Z,5.89
2023-04-01T22:48:13.604Z,5.89
2023-04-01T22:50:45.891Z,5.98
2023-04-01T22:53:12.297Z,5.90
2023-04-01T22:55:39.320Z,5.89
2023-04-01T22:58:26.105Z,5.94
2023-04-01T23:00:53.558Z,5.90
2023-04-01T23:03:20.483Z,5.92
2023-04-01T23:05:59.972Z,5.90
2023-04-01T23:08:39.861Z,5.92
2023-04-01T23:11:07.644Z,5.93
2023-04-01T23:13:38.832Z,5.89
2023-04-01T23:16:05.424Z,5.90
2023-04-01T23:19:04.464Z,5.91
2023-04-01T23:21:38.572Z,5.89
2023-04-01T23:24:17.277Z,5.93
2023-04-01T23:26:46.440Z,5.91
2023-04-01T23:29:16.638Z,5.87
2023-04-01T23:31:43.659Z,5.89
2023-04-01T23:34:10.208Z,5.89
2023-04-01T23:36:38.388Z,5.84
2023-04-01T23:39:06.306Z,5.85
2023-04-01T23:41:32.736Z,5.76
2023-04-01T23:44:10.155Z,5.70
2023-04-01T23:46:36.677Z,5.67
2023-04-01T23:49:03.430Z,5.65
2023-04-01T23:51:30.580Z,5.62
2023-04-01T23:53:57.873Z,5.68
2023-04-01T23:56:24.276Z,5.72
2023-04-01T23:58:51.466Z,5.72
